Time;durP1;ratioP1;P1;durP2;ratioP2;P2;SDS_P1;SDS_P2;PMS_P1;PMS_P2;Temp;Humidity;BMP_temperature;BMP_pressure;BME280_temperature;BME280_humidity;BME280_pressure;Samples;Min_cycle;Max_cycle;Signal;HPM_P1;HPM_P2
2022/07/01 00:00:35;;;;;;;14.20;6.70;;;12.00;99.90;;;;;;4965716;28;20452;-72
2022/07/01 00:03:02;;;;;;;11.98;7.20;;;12.00;99.90;;;;;;4962238;28;20753;-73
2022/07/01 00:05:31;;;;;;;9.98;6.30;;;12.00;99.90;;;;;;4968090;28;20031;-70
2022/07/01 00:07:59;;;;;;;6.80;5.55;;;12.20;99.90;;;;;;4959257;28;20073;-73
2022/07/01 00:10:28;;;;;;;10.50;6.18;;;12.10;99.90;;;;;;4964782;28;20042;-74
2022/07/01 00:12:55;;;;;;;10.52;6.28;;;12.20;99.90;;;;;;4966746;28;20527;-76
2022/07/01 00:15:23;;;;;;;11.75;6.80;;;12.20;99.90;;;;;;4964166;28;20030;-74
2022/07/01 00:17:51;;;;;;;10.20;6.60;;;12.20;99.90;;;;;;4965691;28;20084;-75
2022/07/01 00:20:20;;;;;;;8.73;7.13;;;12.30;99.90;;;;;;4967064;28;20031;-76
2022/07/01 00:22:47;;;;;;;9.07;6.68;;;12.40;99.90;;;;;;4963375;28;20022;-75
2022/07/01 00:25:15;;;;;;;9.85;5.85;;;12.50;99.90;;;;;;4962891;28;20038;-74
2022/07/01 00:27:42;;;;;;;12.38;6.75;;;12.50;99.90;;;;;;4962104;28;20423;-74
2022/07/01 00:30:10;;;;;;;11.20;6.80;;;12.50;99.90;;;;;;4967844;28;20194;-78
2022/07/01 00:32:38;;;;;;;11.50;5.75;;;12.60;99.90;;;;;;4963711;28;20014;-80
2022/07/01 00:35:06;;;;;;;8.93;5.18;;;12.50;99.90;;;;;;4950694;28;20027;-75
2022/07/01 00:37:33;;;;;;;6.55;5.53;;;12.60;99.90;;;;;;4961892;28;20042;-75
2022/07/01 00:40:01;;;;;;;8.02;5.45;;;12.60;99.90;;;;;;4965873;28;20476;-76
2022/07/01 00:42:28;;;;;;;7.25;5.53;;;12.60;99.90;;;;;;4964226;28;20090;-74
2022/07/01 00:44:55;;;;;;;7.80;5.25;;;12.70;99.90;;;;;;4960995;28;20030;-77
2022/07/01 00:47:24;;;;;;;6.82;4.43;;;12.70;99.90;;;;;;4960625;28;20038;-76
2022/07/01 00:49:51;;;;;;;7.13;4.35;;;12.60;99.90;;;;;;4962168;28;20027;-76
2022/07/01 00:52:18;;;;;;;7.25;5.32;;;12.60;99.90;;;;;;4963378;28;20493;-75
2022/07/01 00:54:46;;;;;;;4.78;2.75;;;12.70;99.90;;;;;;4971726;28;20019;-78
2022/07/01 00:57:13;;;;;;;6.32;3.25;;;12.70;99.90;;;;;;4964117;28;20023;-77
2022/07/01 00:59:41;;;;;;;7.32;3.63;;;12.80;99.90;;;;;;4963228;28;20023;-78
2022/07/01 01:02:09;;;;;;;7.78;3.78;;;12.90;99.90;;;;;;4966675;28;20026;-79
2022/07/01 01:04:37;;;;;;;5.88;3.03;;;12.90;99.90;;;;;;4969384;28;20601;-79
2022/07/01 01:07:05;;;;;;;6.93;3.80;;;12.90;99.90;;;;;;4964645;28;20035;-78
2022/07/01 01:09:34;;;;;;;7.50;3.38;;;12.90;99.90;;;;;;4965324;28;20101;-80
2022/07/01 01:12:02;;;;;;;6.15;4.07;;;13.00;99.90;;;;;;4964662;28;20023;-77
2022/07/01 01:14:29;;;;;;;7.82;5.10;;;13.00;99.90;;;;;;4965008;28;20587;-80
2022/07/01 01:16:57;;;;;;;7.53;4.40;;;13.00;99.90;;;;;;4963260;28;20074;-75
2022/07/01 01:19:24;;;;;;;9.00;4.63;;;13.00;99.90;;;;;;4965852;28;20012;-77
2022/07/01 01:21:51;;;;;;;9.77;6.05;;;13.00;99.90;;;;;;4958152;28;20515;-75
2022/07/01 01:24:20;;;;;;;8.48;5.50;;;13.00;99.90;;;;;;4963174;28;20030;-77
2022/07/01 01:26:47;;;;;;;10.43;4.97;;;13.00;99.90;;;;;;4961036;28;20031;-78
2022/07/01 01:29:14;;;;;;;6.45;4.13;;;13.00;99.90;;;;;;4965788;28;20015;-77
2022/07/01 01:31:42;;;;;;;6.50;4.40;;;13.00;99.90;;;;;;4969072;28;20022;-76
2022/07/01 01:34:09;;;;;;;8.10;3.90;;;12.90;99.90;;;;;;4956601;28;20031;-78
2022/07/01 01:36:37;;;;;;;8.02;4.47;;;12.90;99.90;;;;;;4969985;28;20114;-75
2022/07/01 01:39:16;;;;;;;7.55;4.53;;;12.90;99.90;;;;;;4972590;28;20042;-75
2022/07/01 01:41:44;;;;;;;4.78;4.07;;;13.00;99.90;;;;;;4967483;28;20021;-76
2022/07/01 01:44:12;;;;;;;10.75;4.90;;;12.90;99.90;;;;;;4971206;28;20484;-76
2022/07/01 01:46:41;;;;;;;7.15;4.45;;;13.00;99.90;;;;;;4973473;28;20027;-75
2022/07/01 01:49:08;;;;;;;5.95;4.05;;;12.90;99.90;;;;;;4974255;28;20464;-77
2022/07/01 01:51:36;;;;;;;7.50;4.70;;;13.00;99.90;;;;;;4972833;28;20035;-74
2022/07/01 01:54:04;;;;;;;6.53;4.40;;;13.00;99.90;;;;;;4971796;28;20411;-76
2022/07/01 01:56:31;;;;;;;7.43;3.70;;;12.90;99.90;;;;;;4971959;28;20043;-75
2022/07/01 01:59:04;;;;;;;6.50;3.40;;;12.80;99.90;;;;;;4972434;28;20105;-77
2022/07/01 02:01:31;;;;;;;7.07;3.83;;;12.80;99.90;;;;;;4967146;28;20031;-74
2022/07/01 02:03:59;;;;;;;8.95;3.75;;;12.80;99.90;;;;;;4968181;28;20058;-75
2022/07/01 02:06:29;;;;;;;6.60;4.35;;;12.90;99.90;;;;;;4962350;28;20043;-76
2022/07/01 02:08:58;;;;;;;4.20;3.28;;;12.80;99.90;;;;;;4954024;28;20015;-76
2022/07/01 02:11:25;;;;;;;7.57;3.97;;;12.80;99.90;;;;;;4963485;28;20427;-77
2022/07/01 02:13:53;;;;;;;6.30;4.07;;;12.70;99.90;;;;;;4972621;28;20022;-79
2022/07/01 02:16:21;;;;;;;7.22;4.57;;;12.80;99.90;;;;;;4955395;28;20031;-76
2022/07/01 02:18:49;;;;;;;8.80;3.97;;;12.80;99.90;;;;;;4971192;28;20042;-74
2022/07/01 02:21:16;;;;;;;6.03;4.18;;;12.70;99.90;;;;;;4973559;28;20041;-78
2022/07/01 02:23:43;;;;;;;6.95;4.43;;;12.60;99.90;;;;;;4955626;28;20026;-77
2022/07/01 02:26:12;;;;;;;7.43;3.78;;;12.60;99.90;;;;;;4971631;28;20023;-75
2022/07/01 02:28:40;;;;;;;6.15;4.32;;;12.50;99.90;;;;;;4971326;28;20037;-77
2022/07/01 02:31:08;;;;;;;6.68;4.05;;;12.50;99.90;;;;;;4971989;28;20451;-74
2022/07/01 02:33:35;;;;;;;9.57;4.85;;;12.50;99.90;;;;;;4978932;28;20022;-76
2022/07/01 02:36:03;;;;;;;7.80;4.30;;;12.60;99.90;;;;;;4954488;28;20039;-76
2022/07/01 02:38:33;;;;;;;9.10;4.75;;;12.60;99.90;;;;;;4955941;28;20038;-78
2022/07/01 02:41:00;;;;;;;10.00;4.70;;;12.50;99.90;;;;;;4962394;28;20023;-72
2022/07/01 02:43:29;;;;;;;7.82;4.70;;;12.60;99.90;;;;;;4976404;28;20031;-76
2022/07/01 02:45:58;;;;;;;6.22;4.90;;;12.60;99.90;;;;;;4972782;28;20101;-72
2022/07/01 02:48:26;;;;;;;10.23;5.03;;;12.50;99.90;;;;;;4973897;28;20027;-79
2022/07/01 02:50:54;;;;;;;7.40;4.70;;;12.50;99.90;;;;;;4973578;28;20484;-75
2022/07/01 02:53:21;;;;;;;12.30;6.53;;;12.50;99.90;;;;;;4971621;28;20099;-76
2022/07/01 02:55:48;;;;;;;12.48;5.88;;;12.50;99.90;;;;;;4972308;28;20023;-73
2022/07/01 02:58:16;;;;;;;8.55;5.32;;;12.40;99.90;;;;;;4972613;28;20035;-73
2022/07/01 03:00:43;;;;;;;12.50;6.78;;;12.40;99.90;;;;;;4971789;28;20065;-74
2022/07/01 03:03:10;;;;;;;9.30;5.97;;;12.30;99.90;;;;;;4971928;28;20059;-74
2022/07/01 03:05:38;;;;;;;8.57;5.05;;;12.30;99.90;;;;;;4965891;28;20126;-73
2022/07/01 03:08:05;;;;;;;10.18;6.05;;;12.30;99.90;;;;;;4967165;28;20064;-70
2022/07/01 03:10:34;;;;;;;10.38;5.43;;;12.30;99.90;;;;;;4972895;28;20453;-71
2022/07/01 03:13:02;;;;;;;11.00;5.25;;;12.20;99.90;;;;;;4972222;28;20082;-76
2022/07/01 03:15:29;;;;;;;8.85;5.63;;;12.30;99.90;;;;;;4970644;28;20030;-75
2022/07/01 03:17:56;;;;;;;8.02;5.32;;;12.30;99.90;;;;;;4971415;28;20498;-73
2022/07/01 03:20:25;;;;;;;11.13;5.40;;;12.30;99.90;;;;;;4973878;28;20023;-75
2022/07/01 03:22:53;;;;;;;9.93;5.80;;;12.30;99.90;;;;;;4976112;28;20027;-75
2022/07/01 03:25:20;;;;;;;9.00;5.70;;;12.30;99.90;;;;;;4974163;28;20511;-71
2022/07/01 03:27:47;;;;;;;9.38;5.55;;;12.30;99.90;;;;;;4973604;28;20784;-74
2022/07/01 03:30:17;;;;;;;9.48;6.05;;;12.40;99.90;;;;;;4973198;28;20419;-73
2022/07/01 03:32:45;;;;;;;10.27;6.35;;;12.40;99.90;;;;;;4970629;28;20391;-78
2022/07/01 03:37:58;;;;;;;8.82;5.75;;;12.30;99.90;;;;;;4974606;28;20042;-79
2022/07/01 03:40:26;;;;;;;6.82;5.20;;;12.30;99.90;;;;;;4974457;28;20014;-73
2022/07/01 03:42:53;;;;;;;8.32;5.55;;;12.40;99.90;;;;;;4974275;28;20498;-75
2022/07/01 03:45:23;;;;;;;10.13;7.32;;;12.40;99.90;;;;;;4976048;28;20026;-75
2022/07/01 03:47:55;;;;;;;11.30;6.32;;;12.40;99.90;;;;;;4974620;28;20027;-71
2022/07/01 03:50:32;;;;;;;9.98;5.50;;;12.30;99.90;;;;;;4975194;28;20038;-73
2022/07/01 03:55:47;;;;;;;9.10;5.55;;;12.30;99.90;;;;;;4974083;28;20037;-74
2022/07/01 03:58:14;;;;;;;8.27;5.05;;;12.30;99.90;;;;;;4972223;28;20030;-72
2022/07/01 04:00:43;;;;;;;5.85;4.97;;;12.30;99.90;;;;;;4975540;28;20086;-76
2022/07/01 04:03:10;;;;;;;7.60;5.50;;;12.40;99.90;;;;;;4975764;28;20023;-76
2022/07/01 04:05:40;;;;;;;4.88;4.35;;;12.30;99.90;;;;;;4974777;28;20419;-77
2022/07/01 04:08:10;;;;;;;8.10;4.97;;;12.40;99.90;;;;;;4974644;28;20030;-76
2022/07/01 04:10:39;;;;;;;7.60;4.57;;;12.40;99.90;;;;;;4972483;28;20081;-77
2022/07/01 04:13:07;;;;;;;9.65;4.88;;;12.30;99.90;;;;;;4974073;28;20085;-78
2022/07/01 04:15:34;;;;;;;7.50;3.90;;;12.40;99.90;;;;;;4973708;28;20062;-74
2022/07/01 04:18:02;;;;;;;8.52;4.60;;;12.40;99.90;;;;;;4973521;28;20395;-76
2022/07/01 04:20:29;;;;;;;7.85;4.97;;;12.40;99.90;;;;;;4972278;28;20061;-77
2022/07/01 04:23:03;;;;;;;5.75;4.32;;;12.40;99.90;;;;;;4972795;28;20052;-76
2022/07/01 04:25:32;;;;;;;7.60;5.18;;;12.40;99.90;;;;;;4973893;28;20023;-76
2022/07/01 04:28:03;;;;;;;6.63;5.05;;;12.50;99.90;;;;;;4971647;28;20047;-79
2022/07/01 04:30:30;;;;;;;6.43;4.88;;;12.40;99.90;;;;;;4972237;28;20047;-78
2022/07/01 04:32:58;;;;;;;7.10;4.13;;;12.50;99.90;;;;;;4972819;28;20027;-77
2022/07/01 04:35:25;;;;;;;7.78;3.97;;;12.50;99.90;;;;;;4972512;28;20035;-78
2022/07/01 04:37:54;;;;;;;6.38;4.05;;;12.50;99.90;;;;;;4971976;28;20038;-76
2022/07/01 04:40:22;;;;;;;8.38;4.68;;;12.50;99.90;;;;;;4972611;28;20027;-78
2022/07/01 04:42:56;;;;;;;10.00;5.93;;;12.50;99.90;;;;;;4974477;28;20054;-76
2022/07/01 04:45:24;;;;;;;8.18;4.53;;;12.60;99.90;;;;;;4973123;28;20027;-74
2022/07/01 04:47:51;;;;;;;10.18;4.72;;;12.50;99.90;;;;;;4972867;28;20030;-75
2022/07/01 04:50:18;;;;;;;5.40;4.32;;;12.50;99.90;;;;;;4964996;28;20031;-73
2022/07/01 04:52:45;;;;;;;6.05;4.97;;;12.50;99.90;;;;;;4972775;28;20026;-74
2022/07/01 04:55:13;;;;;;;8.90;5.00;;;12.50;99.90;;;;;;4972132;28;20062;-73
2022/07/01 04:57:40;;;;;;;10.00;5.10;;;12.50;99.90;;;;;;4971360;28;20046;-74
2022/07/01 05:00:08;;;;;;;9.43;5.03;;;12.50;99.90;;;;;;4971008;28;20027;-73
2022/07/01 05:02:36;;;;;;;7.03;4.63;;;12.50;99.90;;;;;;4972838;28;20487;-74
2022/07/01 05:05:04;;;;;;;7.40;4.97;;;12.50;99.90;;;;;;4971362;28;20027;-73
2022/07/01 05:07:31;;;;;;;7.35;5.35;;;12.50;99.90;;;;;;4971028;28;20431;-75
2022/07/01 05:09:59;;;;;;;7.75;4.82;;;12.50;99.90;;;;;;4971979;28;20030;-74
2022/07/01 05:12:26;;;;;;;8.38;5.00;;;12.50;99.90;;;;;;4971618;28;20050;-73
2022/07/01 05:14:53;;;;;;;8.70;5.68;;;12.40;99.90;;;;;;4971732;28;20022;-74
2022/07/01 05:21:55;;;;;;;9.90;5.30;;;12.40;99.90;;;;;;4972151;28;20037;-75
2022/07/01 05:22:53;;;;;;;8.82;6.10;;;12.40;99.90;;;;;;4972316;28;20065;-76
2022/07/01 05:25:28;;;;;;;7.88;6.03;;;12.50;99.90;;;;;;4969753;28;20023;-78
2022/07/01 05:27:56;;;;;;;8.30;5.75;;;12.40;99.90;;;;;;4960344;28;20373;-74
2022/07/01 05:30:23;;;;;;;8.75;5.75;;;12.40;99.90;;;;;;4951341;28;20051;-75
2022/07/01 05:32:50;;;;;;;8.50;5.75;;;12.40;99.90;;;;;;4971682;28;20027;-73
2022/07/01 05:35:18;;;;;;;10.65;5.72;;;12.40;99.90;;;;;;4970993;28;20117;-72
2022/07/01 05:37:45;;;;;;;8.40;5.70;;;12.30;99.90;;;;;;4972304;28;20046;-76
2022/07/01 05:40:13;;;;;;;10.65;5.57;;;12.30;99.90;;;;;;4973012;28;20027;-79
2022/07/01 05:42:40;;;;;;;8.60;5.55;;;12.30;99.90;;;;;;4970754;28;20165;-76
2022/07/01 05:45:08;;;;;;;8.38;6.00;;;12.30;99.90;;;;;;4963308;28;20027;-74
2022/07/01 05:47:35;;;;;;;9.30;6.00;;;12.30;99.90;;;;;;4967871;28;20479;-77
2022/07/01 05:50:02;;;;;;;11.23;6.53;;;12.30;99.90;;;;;;4977235;28;20014;-74
2022/07/01 05:52:30;;;;;;;9.10;6.25;;;12.30;99.90;;;;;;4978470;28;20472;-75
2022/07/01 05:54:57;;;;;;;8.40;6.03;;;12.30;99.90;;;;;;4962419;28;20494;-74
2022/07/01 05:57:24;;;;;;;9.85;5.07;;;12.30;99.90;;;;;;4959077;28;20035;-75
2022/07/01 05:59:52;;;;;;;7.97;6.35;;;12.30;99.90;;;;;;4969912;28;20266;-73
2022/07/01 06:02:19;;;;;;;8.10;5.22;;;12.30;99.90;;;;;;4969562;28;20027;-73
2022/07/01 06:04:46;;;;;;;8.07;5.47;;;12.20;99.90;;;;;;4972651;28;20012;-73
2022/07/01 06:07:14;;;;;;;9.05;5.75;;;12.20;99.90;;;;;;4968099;28;20038;-73
2022/07/01 06:09:41;;;;;;;13.63;5.70;;;12.20;99.90;;;;;;4971190;28;20022;-76
2022/07/01 06:12:09;;;;;;;8.80;5.50;;;12.10;99.90;;;;;;4971555;28;20034;-73
2022/07/01 06:14:37;;;;;;;7.70;5.78;;;12.10;99.90;;;;;;4969474;28;20059;-77
2022/07/01 06:17:05;;;;;;;12.98;6.97;;;12.20;99.90;;;;;;4966190;28;20038;-74
2022/07/01 06:19:32;;;;;;;9.38;6.97;;;12.20;99.90;;;;;;4960331;28;20023;-76
2022/07/01 06:22:00;;;;;;;10.63;6.78;;;12.10;99.90;;;;;;4968528;28;20062;-73
2022/07/01 06:24:27;;;;;;;9.32;6.85;;;12.10;99.90;;;;;;4970504;28;20079;-78
2022/07/01 06:26:54;;;;;;;8.43;6.30;;;12.00;99.90;;;;;;4971688;28;20054;-73
2022/07/01 06:29:22;;;;;;;7.90;5.25;;;12.00;99.90;;;;;;4968637;28;20023;-76
2022/07/01 06:31:49;;;;;;;11.60;7.03;;;12.00;99.90;;;;;;4971686;28;20053;-72
2022/07/01 06:34:16;;;;;;;7.78;5.72;;;12.00;99.90;;;;;;4971367;28;20030;-75
2022/07/01 06:36:44;;;;;;;9.82;6.78;;;12.10;99.90;;;;;;4970388;28;20041;-75
2022/07/01 06:39:11;;;;;;;8.65;6.68;;;12.10;99.90;;;;;;4963891;28;20024;-73
2022/07/01 06:41:39;;;;;;;10.32;6.18;;;12.10;99.90;;;;;;4957189;28;20027;-75
2022/07/01 06:44:06;;;;;;;8.57;6.13;;;12.00;99.90;;;;;;4967042;28;20057;-74
2022/07/01 06:46:34;;;;;;;10.60;6.10;;;12.00;99.90;;;;;;4965155;28;20022;-74
2022/07/01 06:49:01;;;;;;;9.75;6.70;;;12.00;99.90;;;;;;4967004;28;20027;-73
2022/07/01 06:51:28;;;;;;;11.07;6.85;;;12.00;99.90;;;;;;4966776;28;20033;-72
2022/07/01 06:53:56;;;;;;;7.72;5.97;;;11.90;99.90;;;;;;4970995;28;20049;-75
2022/07/01 06:56:23;;;;;;;9.70;6.10;;;12.00;99.90;;;;;;4972616;28;20073;-74
2022/07/01 06:58:51;;;;;;;12.77;7.05;;;11.90;99.90;;;;;;4974342;28;20030;-73
2022/07/01 07:01:24;;;;;;;10.02;6.85;;;12.00;99.90;;;;;;4975874;28;20411;-75
2022/07/01 07:03:52;;;;;;;13.52;5.85;;;11.90;99.90;;;;;;4976483;28;20027;-77
2022/07/01 07:06:19;;;;;;;8.18;5.85;;;11.90;99.90;;;;;;4953496;28;20031;-71
2022/07/01 07:08:47;;;;;;;9.27;6.65;;;11.90;99.90;;;;;;4962301;28;20023;-75
2022/07/01 07:11:15;;;;;;;6.95;5.82;;;11.90;99.90;;;;;;4975665;28;20579;-73
2022/07/01 07:13:42;;;;;;;8.98;6.63;;;11.90;99.90;;;;;;4974404;28;20041;-75
2022/07/01 07:16:10;;;;;;;10.13;6.45;;;11.90;99.90;;;;;;4974515;28;20038;-74
2022/07/01 07:18:37;;;;;;;8.95;6.82;;;11.90;99.90;;;;;;4972680;28;20384;-76
2022/07/01 07:21:05;;;;;;;12.05;6.95;;;11.90;99.90;;;;;;4971293;28;20023;-73
2022/07/01 07:23:32;;;;;;;9.68;6.63;;;11.90;99.90;;;;;;4974600;28;20057;-73
2022/07/01 07:25:59;;;;;;;11.60;7.60;;;11.80;99.90;;;;;;4975189;28;20057;-74
2022/07/01 07:28:26;;;;;;;9.85;8.10;;;11.80;99.90;;;;;;4966017;28;20097;-74
2022/07/01 07:30:54;;;;;;;12.95;8.65;;;11.80;99.90;;;;;;4951099;28;20051;-74
2022/07/01 07:33:22;;;;;;;11.15;8.15;;;11.80;99.90;;;;;;4967685;28;20038;-75
2022/07/01 07:35:49;;;;;;;14.63;8.85;;;11.80;99.90;;;;;;4974939;28;20591;-73
2022/07/01 07:38:17;;;;;;;15.55;9.90;;;11.80;99.90;;;;;;4974665;28;20042;-74
2022/07/01 07:40:44;;;;;;;12.30;9.13;;;11.80;99.90;;;;;;4974614;28;20022;-77
2022/07/01 07:43:11;;;;;;;15.77;9.68;;;11.80;99.90;;;;;;4974194;28;20054;-73
2022/07/01 07:45:38;;;;;;;13.07;9.00;;;11.80;99.90;;;;;;4973511;28;20074;-73
2022/07/01 07:48:06;;;;;;;11.35;8.75;;;11.80;99.90;;;;;;4973467;28;20027;-74
2022/07/01 07:50:34;;;;;;;13.82;9.60;;;11.70;99.90;;;;;;4973725;28;20027;-75
2022/07/01 07:53:01;;;;;;;12.75;9.20;;;11.70;99.90;;;;;;4974545;28;20051;-75
2022/07/01 07:55:29;;;;;;;12.25;9.10;;;11.60;99.90;;;;;;4975960;28;20038;-74
2022/07/01 07:57:56;;;;;;;12.20;9.32;;;11.70;99.90;;;;;;4975808;28;20492;-74
2022/07/01 08:00:24;;;;;;;13.90;8.85;;;11.60;99.90;;;;;;4974631;28;20011;-75
2022/07/01 08:02:51;;;;;;;13.88;9.93;;;11.60;99.90;;;;;;4971186;28;20498;-76
2022/07/01 08:05:18;;;;;;;12.63;10.00;;;11.70;99.90;;;;;;4972319;28;20039;-74
2022/07/01 08:07:45;;;;;;;15.45;10.55;;;11.60;99.90;;;;;;4972282;28;20427;-75
2022/07/01 08:10:14;;;;;;;16.02;9.63;;;11.70;99.90;;;;;;4972368;28;20041;-73
2022/07/01 08:12:41;;;;;;;11.77;10.02;;;11.70;99.90;;;;;;4972390;28;20027;-73
2022/07/01 08:15:10;;;;;;;14.23;10.73;;;11.70;99.90;;;;;;4973108;28;20038;-73
2022/07/01 08:17:37;;;;;;;13.57;10.55;;;11.70;99.90;;;;;;4974847;28;20476;-73
2022/07/01 08:20:05;;;;;;;13.73;10.65;;;11.70;99.90;;;;;;4975250;28;20112;-73
2022/07/01 08:22:33;;;;;;;17.42;11.38;;;11.80;99.90;;;;;;4973829;28;20027;-73
2022/07/01 08:25:00;;;;;;;16.00;11.75;;;11.80;99.90;;;;;;4973438;28;20472;-75
2022/07/01 08:27:28;;;;;;;16.15;12.10;;;11.70;99.90;;;;;;4974897;28;20035;-74
2022/07/01 08:29:55;;;;;;;15.57;11.75;;;11.70;99.90;;;;;;4973953;28;20043;-75
2022/07/01 08:32:26;;;;;;;19.90;13.35;;;11.70;99.90;;;;;;4978462;28;20058;-74
2022/07/01 08:34:53;;;;;;;22.08;14.98;;;11.70;99.90;;;;;;4974757;28;20383;-75
2022/07/01 08:37:20;;;;;;;20.60;14.05;;;11.70;99.90;;;;;;4974634;28;20126;-75
2022/07/01 08:39:48;;;;;;;22.38;14.65;;;11.80;99.90;;;;;;4974417;28;20019;-74
2022/07/01 08:42:15;;;;;;;17.27;13.40;;;11.70;99.90;;;;;;4974992;28;20027;-73
2022/07/01 08:44:43;;;;;;;16.60;14.45;;;11.70;99.90;;;;;;4974768;28;20023;-74
2022/07/01 08:47:13;;;;;;;17.98;14.32;;;11.70;99.90;;;;;;4974723;28;20534;-73
2022/07/01 08:49:41;;;;;;;16.13;13.93;;;11.70;99.90;;;;;;4974297;28;20023;-74
2022/07/01 08:52:11;;;;;;;19.42;15.70;;;11.70;99.90;;;;;;4973946;28;20030;-74
2022/07/01 08:54:39;;;;;;;16.50;14.32;;;11.70;99.90;;;;;;4973688;28;20027;-74
2022/07/01 08:57:07;;;;;;;19.38;16.00;;;11.80;99.90;;;;;;4974025;28;20035;-74
2022/07/01 08:59:38;;;;;;;17.83;15.48;;;11.70;99.90;;;;;;4973510;28;20153;-73
2022/07/01 09:02:06;;;;;;;20.50;16.05;;;11.70;99.90;;;;;;4974484;28;20034;-73
2022/07/01 09:04:34;;;;;;;23.83;15.57;;;11.70;99.90;;;;;;4973982;28;20098;-75
2022/07/01 09:07:05;;;;;;;17.30;14.35;;;11.80;99.90;;;;;;4974131;28;20039;-75
2022/07/01 09:09:37;;;;;;;19.00;15.20;;;11.70;99.90;;;;;;4974190;28;20494;-75
2022/07/01 09:12:04;;;;;;;18.80;15.57;;;11.70;99.90;;;;;;4972355;28;20026;-74
2022/07/01 09:14:34;;;;;;;19.65;14.15;;;11.70;99.90;;;;;;4973749;28;20118;-74
2022/07/01 09:17:06;;;;;;;20.60;14.77;;;11.70;99.90;;;;;;4973861;28;20034;-72
2022/07/01 09:19:39;;;;;;;21.52;14.95;;;11.70;99.90;;;;;;4973911;28;20031;-72
2022/07/01 09:22:07;;;;;;;16.05;14.38;;;11.70;99.90;;;;;;4972939;28;20038;-72
2022/07/01 09:24:37;;;;;;;21.38;15.10;;;11.70;99.90;;;;;;4973786;28;20023;-72
2022/07/01 09:27:13;;;;;;;18.38;14.25;;;11.70;99.90;;;;;;4972367;28;20030;-73
2022/07/01 09:29:43;;;;;;;28.48;14.77;;;11.70;99.90;;;;;;4972979;28;20039;-73
2022/07/01 09:32:13;;;;;;;20.77;15.73;;;11.60;99.90;;;;;;4974039;28;20149;-73
2022/07/01 09:34:46;;;;;;;15.90;13.23;;;11.70;99.90;;;;;;4973537;28;20033;-74
2022/07/01 09:37:15;;;;;;;18.33;13.75;;;11.60;99.90;;;;;;4973503;28;20046;-74
2022/07/01 09:40:00;;;;;;;17.75;14.80;;;11.60;99.90;;;;;;4974024;28;20078;-73
2022/07/01 09:42:29;;;;;;;15.77;13.10;;;11.70;99.90;;;;;;4973264;28;20062;-73
2022/07/01 09:45:10;;;;;;;18.88;12.35;;;11.60;99.90;;;;;;4956102;28;20081;-74
2022/07/01 09:47:40;;;;;;;14.75;12.77;;;11.60;99.90;;;;;;4972917;28;20034;-74
2022/07/01 09:50:09;;;;;;;15.40;13.07;;;11.50;99.90;;;;;;4974765;28;20388;-72
2022/07/01 09:52:38;;;;;;;18.60;14.57;;;11.60;99.90;;;;;;4964502;28;20058;-73
2022/07/01 09:55:08;;;;;;;19.38;12.98;;;11.60;99.90;;;;;;4972796;28;20484;-73
2022/07/01 09:57:35;;;;;;;17.88;14.65;;;11.60;99.90;;;;;;4975713;28;20484;-75
2022/07/01 10:00:05;;;;;;;19.55;14.25;;;11.70;99.90;;;;;;4975984;28;20027;-74
2022/07/01 10:02:35;;;;;;;17.50;13.63;;;11.60;99.90;;;;;;4973663;28;20034;-74
2022/07/01 10:05:14;;;;;;;18.00;12.77;;;11.60;99.90;;;;;;4975461;28;20153;-74
2022/07/01 10:08:00;;;;;;;16.00;11.70;;;11.60;99.90;;;;;;4976036;28;20034;-74
2022/07/01 10:10:58;;;;;;;13.02;9.70;;;11.60;99.90;;;;;;4973457;28;20031;-74
2022/07/01 10:13:28;;;;;;;14.13;10.25;;;11.60;99.90;;;;;;4975403;28;20026;-74
2022/07/01 10:15:57;;;;;;;14.45;11.27;;;11.60;99.90;;;;;;4973463;28;20027;-75
2022/07/01 10:18:27;;;;;;;11.68;10.48;;;11.60;99.90;;;;;;4973732;28;20070;-75
2022/07/01 10:20:56;;;;;;;11.25;9.98;;;11.60;99.90;;;;;;4974566;28;20384;-75
2022/07/01 10:23:40;;;;;;;14.18;11.00;;;11.60;99.90;;;;;;4975190;28;20031;-75
2022/07/01 10:26:08;;;;;;;14.73;10.35;;;11.60;99.90;;;;;;4952904;28;20110;-75
2022/07/01 10:28:43;;;;;;;11.93;10.07;;;11.60;99.90;;;;;;4954589;28;20027;-75
2022/07/01 10:31:18;;;;;;;11.55;10.05;;;11.70;99.90;;;;;;4973023;28;20555;-73
2022/07/01 10:33:51;;;;;;;13.57;10.35;;;11.60;99.90;;;;;;4972996;28;20083;-76
2022/07/01 10:36:31;;;;;;;13.90;10.48;;;11.60;99.90;;;;;;4957557;28;20035;-74
2022/07/01 10:39:08;;;;;;;12.77;10.20;;;11.60;99.90;;;;;;4963217;28;20404;-74
2022/07/01 10:41:42;;;;;;;11.57;10.25;;;11.60;99.90;;;;;;4976409;28;20492;-76
2022/07/01 10:44:12;;;;;;;11.90;9.90;;;11.60;99.90;;;;;;4976496;28;20062;-74
2022/07/01 10:46:49;;;;;;;12.68;10.50;;;11.70;99.90;;;;;;4978380;28;20034;-75
2022/07/01 10:49:21;;;;;;;16.02;11.35;;;11.70;99.90;;;;;;4976997;28;20031;-74
2022/07/01 10:52:00;;;;;;;15.70;11.10;;;11.70;99.90;;;;;;4976385;28;20035;-73
2022/07/01 10:54:38;;;;;;;13.35;10.93;;;11.70;99.90;;;;;;4964330;28;20114;-74
2022/07/01 10:57:23;;;;;;;17.58;12.18;;;11.60;99.90;;;;;;4976678;28;20023;-73
2022/07/01 11:00:00;;;;;;;13.85;10.52;;;11.70;99.90;;;;;;4961233;28;20031;-73
2022/07/01 11:02:30;;;;;;;14.65;10.77;;;11.70;99.90;;;;;;4956810;28;20093;-73
2022/07/01 11:04:59;;;;;;;12.18;10.60;;;11.60;99.90;;;;;;4961124;28;20036;-76
2022/07/01 11:07:31;;;;;;;13.82;9.65;;;11.70;99.90;;;;;;4965685;28;20023;-77
2022/07/01 11:10:00;;;;;;;14.43;10.13;;;11.70;99.90;;;;;;4974781;28;20031;-73
2022/07/01 11:12:29;;;;;;;12.23;9.93;;;11.70;99.90;;;;;;4975896;28;20027;-75
2022/07/01 11:15:01;;;;;;;11.48;9.77;;;11.70;99.90;;;;;;4975810;28;20038;-73
2022/07/01 11:17:29;;;;;;;9.52;8.52;;;11.70;99.90;;;;;;4975432;28;20030;-74
2022/07/01 11:20:01;;;;;;;10.18;8.65;;;11.70;99.90;;;;;;4975648;28;20022;-74
2022/07/01 11:22:34;;;;;;;10.15;8.52;;;11.60;99.90;;;;;;4974946;28;20038;-75
2022/07/01 11:25:04;;;;;;;11.30;9.95;;;11.70;99.90;;;;;;4975608;28;20026;-73
2022/07/01 11:27:33;;;;;;;9.77;8.77;;;11.70;99.90;;;;;;4975562;28;20044;-71
2022/07/01 11:30:10;;;;;;;10.02;7.63;;;11.70;99.90;;;;;;4973836;28;20058;-74
2022/07/01 11:32:41;;;;;;;15.05;8.88;;;11.70;99.90;;;;;;4975630;28;20035;-72
2022/07/01 11:40:59;;;;;;;9.32;7.40;;;11.70;99.90;;;;;;4973904;28;20037;-74
2022/07/01 11:43:33;;;;;;;11.70;7.93;;;11.70;99.90;;;;;;4975354;28;20030;-74
2022/07/01 11:46:17;;;;;;;9.07;8.13;;;11.70;99.90;;;;;;4975353;28;20466;-73
2022/07/01 11:48:51;;;;;;;8.85;7.10;;;11.70;99.90;;;;;;4975492;28;20037;-73
2022/07/01 11:51:26;;;;;;;11.18;8.13;;;11.70;99.90;;;;;;4972323;28;20058;-76
2022/07/01 11:53:55;;;;;;;8.70;7.45;;;11.80;99.90;;;;;;4975240;28;20030;-73
2022/07/01 11:56:30;;;;;;;9.45;7.63;;;11.70;99.90;;;;;;4975334;28;20142;-73
2022/07/01 11:58:58;;;;;;;8.63;7.15;;;11.80;99.90;;;;;;4974912;28;20031;-71
2022/07/01 12:01:30;;;;;;;9.98;6.95;;;11.80;99.90;;;;;;4974708;28;20490;-73
2022/07/01 12:04:00;;;;;;;9.00;7.40;;;11.80;99.90;;;;;;4975188;28;20031;-75
2022/07/01 12:06:28;;;;;;;9.73;8.13;;;11.80;99.90;;;;;;4974988;28;20034;-72
2022/07/01 12:08:56;;;;;;;10.07;7.57;;;11.80;99.90;;;;;;4974938;28;20019;-72
2022/07/01 12:11:26;;;;;;;9.65;7.72;;;11.80;99.90;;;;;;4974625;28;20026;-72
2022/07/01 12:13:55;;;;;;;9.27;8.20;;;11.80;99.90;;;;;;4974578;28;20452;-72
2022/07/01 12:16:23;;;;;;;9.70;7.25;;;11.80;99.90;;;;;;4973204;28;20038;-72
2022/07/01 12:18:58;;;;;;;11.55;8.07;;;11.80;99.90;;;;;;4974626;28;21074;-73
2022/07/01 12:21:26;;;;;;;10.85;8.57;;;11.80;99.90;;;;;;4975010;28;20106;-72
2022/07/01 12:24:10;;;;;;;10.85;8.82;;;11.70;99.90;;;;;;4974559;28;20492;-73
2022/07/01 12:26:48;;;;;;;9.57;8.02;;;11.80;99.90;;;;;;4974640;28;20026;-74
2022/07/01 12:29:17;;;;;;;10.65;7.60;;;11.70;99.90;;;;;;4974199;28;20019;-72
2022/07/01 12:31:54;;;;;;;9.48;6.43;;;11.70;99.90;;;;;;4973044;28;20114;-72
2022/07/01 12:34:22;;;;;;;7.63;6.55;;;11.70;99.90;;;;;;4973354;28;20034;-73
2022/07/01 12:36:50;;;;;;;8.55;7.30;;;11.70;99.90;;;;;;4974473;28;20116;-74
2022/07/01 12:39:18;;;;;;;10.57;8.43;;;11.70;99.90;;;;;;4973385;28;20387;-74
2022/07/01 12:41:51;;;;;;;10.57;7.72;;;11.70;99.90;;;;;;4974523;28;20023;-74
2022/07/01 12:44:25;;;;;;;9.63;7.18;;;11.60;99.90;;;;;;4973906;28;20034;-74
2022/07/01 12:46:54;;;;;;;9.50;7.03;;;11.60;99.90;;;;;;4974334;28;20022;-74
2022/07/01 12:49:24;;;;;;;9.55;7.60;;;11.60;99.90;;;;;;4974592;28;20101;-73
2022/07/01 12:51:54;;;;;;;7.65;6.68;;;11.60;99.90;;;;;;4974188;28;20105;-75
2022/07/01 12:54:38;;;;;;;7.88;6.85;;;11.60;99.90;;;;;;4974098;28;20023;-73
2022/07/01 12:57:06;;;;;;;8.43;6.40;;;11.60;99.90;;;;;;4954938;28;20043;-73
2022/07/01 12:59:33;;;;;;;8.35;7.32;;;11.50;99.90;;;;;;4954873;28;20023;-73
2022/07/01 13:02:01;;;;;;;7.20;6.50;;;11.60;99.90;;;;;;4954735;28;20028;-74
2022/07/01 13:04:29;;;;;;;10.15;7.97;;;11.60;99.90;;;;;;4955848;28;20078;-74